sensor_id;sensor_type;location;lat;lon;timestamp;pressure;altitude;pressure_sealevel;temperature;humidity
37486;BME280;23341;50.296;18.960;2023-04-06T00:00:18;47360.50;;;-144.43;73.27
37486;BME280;23341;50.296;18.960;2023-04-06T00:05:46;47330.53;;;-144.43;73.21
37486;BME280;23341;50.296;18.960;2023-04-06T00:10:51;47344.53;;;-144.43;74.95
37486;BME280;23341;50.296;18.960;2023-04-06T00:15:56;47300.56;;;-144.43;75.02
37486;BME280;23341;50.296;18.960;2023-04-06T00:21:03;47256.63;;;-144.43;76.04
37486;BME280;23341;50.296;18.960;2023-04-06T00:26:08;47268.59;;;-144.43;75.97
37486;BME280;23341;50.296;18.960;2023-04-06T00:31:16;47248.63;;;-144.43;76.58
37486;BME280;23341;50.296;18.960;2023-04-06T00:36:22;47220.66;;;-144.43;78.14
37486;BME280;23341;50.296;18.960;2023-04-06T00:41:27;47140.78;;;-144.43;78.55
37486;BME280;23341;50.296;18.960;2023-04-06T00:46:31;47152.75;;;-144.43;79.01
37486;BME280;23341;50.296;18.960;2023-04-06T00:51:37;47112.81;;;-144.43;79.32
37486;BME280;23341;50.296;18.960;2023-04-06T00:56:42;47124.78;;;-144.43;79.73
37486;BME280;23341;50.296;18.960;2023-04-06T01:01:47;47022.91;;;-144.43;81.19
37486;BME280;23341;50.296;18.960;2023-04-06T01:07:11;46988.97;;;-144.43;80.36
37486;BME280;23341;50.296;18.960;2023-04-06T01:12:25;46980.97;;;-144.43;80.78
37486;BME280;23341;50.296;18.960;2023-04-06T01:17:30;46959.00;;;-144.43;80.08
37486;BME280;23341;50.296;18.960;2023-04-06T01:22:43;46968.97;;;-144.43;80.72
37486;BME280;23341;50.296;18.960;2023-04-06T01:27:48;46927.03;;;-144.43;80.98
37486;BME280;23341;50.296;18.960;2023-04-06T01:32:59;46875.09;;;-144.43;80.85
37486;BME280;23341;50.296;18.960;2023-04-06T01:38:25;46855.13;;;-144.43;81.43
37486;BME280;23341;50.296;18.960;2023-04-06T01:43:30;46871.13;;;-144.43;81.02
37486;BME280;23341;50.296;18.960;2023-04-06T01:48:39;46875.09;;;-144.43;80.75
37486;BME280;23341;50.296;18.960;2023-04-06T01:53:54;46861.13;;;-144.43;81.20
37486;BME280;23341;50.296;18.960;2023-04-06T01:59:08;46837.16;;;-144.43;81.00
37486;BME280;23341;50.296;18.960;2023-04-06T02:04:16;46857.13;;;-144.43;80.98
37486;BME280;23341;50.296;18.960;2023-04-06T02:09:25;46811.19;;;-144.43;81.60
37486;BME280;23341;50.296;18.960;2023-04-06T02:14:30;46771.25;;;-144.43;81.54
37486;BME280;23341;50.296;18.960;2023-04-06T02:19:35;46747.28;;;-144.43;81.96
37486;BME280;23341;50.296;18.960;2023-04-06T02:24:42;46733.28;;;-144.43;81.45
37486;BME280;23341;50.296;18.960;2023-04-06T02:29:46;46731.31;;;-144.43;81.86
37486;BME280;23341;50.296;18.960;2023-04-06T02:34:54;46755.25;;;-144.43;81.97
37486;BME280;23341;50.296;18.960;2023-04-06T02:40:03;46725.31;;;-144.43;82.41
37486;BME280;23341;50.296;18.960;2023-04-06T02:45:09;46675.38;;;-144.43;82.29
37486;BME280;23341;50.296;18.960;2023-04-06T02:50:18;46677.38;;;-144.43;82.60
37486;BME280;23341;50.296;18.960;2023-04-06T02:55:32;46631.44;;;-144.43;83.08
37486;BME280;23341;50.296;18.960;2023-04-06T03:00:37;46649.41;;;-144.43;83.27
37486;BME280;23341;50.296;18.960;2023-04-06T03:05:41;46593.50;;;-144.43;83.92
37486;BME280;23341;50.296;18.960;2023-04-06T03:10:49;46585.50;;;-144.43;83.27
37486;BME280;23341;50.296;18.960;2023-04-06T03:15:54;46557.53;;;-144.43;83.77
37486;BME280;23341;50.296;18.960;2023-04-06T03:20:59;46561.53;;;-144.43;83.72
37486;BME280;23341;50.296;18.960;2023-04-06T03:26:17;46521.59;;;-144.43;84.57
37486;BME280;23341;50.296;18.960;2023-04-06T03:31:22;46467.66;;;-144.43;84.64
37486;BME280;23341;50.296;18.960;2023-04-06T03:36:33;46433.72;;;-144.43;85.35
37486;BME280;23341;50.296;18.960;2023-04-06T03:41:40;46437.72;;;-144.43;84.81
37486;BME280;23341;50.296;18.960;2023-04-06T03:47:12;46429.72;;;-144.43;84.95
37486;BME280;23341;50.296;18.960;2023-04-06T03:52:17;46421.72;;;-144.43;84.77
37486;BME280;23341;50.296;18.960;2023-04-06T03:57:22;46375.78;;;-144.43;84.69
37486;BME280;23341;50.296;18.960;2023-04-06T04:02:27;46365.81;;;-144.43;85.19
37486;BME280;23341;50.296;18.960;2023-04-06T04:07:32;46345.84;;;-144.43;85.01
37486;BME280;23341;50.296;18.960;2023-04-06T04:12:38;46301.91;;;-144.43;85.78
37486;BME280;23341;50.296;18.960;2023-04-06T04:17:42;46259.97;;;-144.43;85.31
37486;BME280;23341;50.296;18.960;2023-04-06T04:22:49;46251.97;;;-144.43;85.45
37486;BME280;23341;50.296;18.960;2023-04-06T04:27:55;46259.97;;;-144.43;84.69
37486;BME280;23341;50.296;18.960;2023-04-06T04:33:00;46257.97;;;-144.43;84.25
37486;BME280;23341;50.296;18.960;2023-04-06T04:38:05;46267.94;;;-144.43;84.26
37486;BME280;23341;50.296;18.960;2023-04-06T04:43:15;46218.03;;;-144.43;84.16
37486;BME280;23341;50.296;18.960;2023-04-06T04:48:20;46230.00;;;-144.43;83.46
37486;BME280;23341;50.296;18.960;2023-04-06T04:53:35;46289.91;;;-144.43;82.92
37486;BME280;23341;50.296;18.960;2023-04-06T04:58:52;46259.97;;;-144.43;81.94
37486;BME280;23341;50.296;18.960;2023-04-06T05:03:57;46313.88;;;-144.43;81.01
37486;BME280;23341;50.296;18.960;2023-04-06T05:09:03;46313.88;;;-144.43;79.43
37486;BME280;23341;50.296;18.960;2023-04-06T05:14:09;46327.88;;;-144.43;78.22
37486;BME280;23341;50.296;18.960;2023-04-06T05:19:14;46349.84;;;-144.43;76.76
37486;BME280;23341;50.296;18.960;2023-04-06T05:24:20;46353.81;;;-144.43;74.55
37486;BME280;23341;50.296;18.960;2023-04-06T05:29:27;46399.75;;;-144.43;73.65
37486;BME280;23341;50.296;18.960;2023-04-06T05:34:31;46419.72;;;-144.43;72.08
37486;BME280;23341;50.296;18.960;2023-04-06T05:39:39;46451.69;;;-144.43;69.95
37486;BME280;23341;50.296;18.960;2023-04-06T05:44:45;46495.63;;;-144.43;69.57
37486;BME280;23341;50.296;18.960;2023-04-06T05:49:51;46479.66;;;-144.43;68.02
37486;BME280;23341;50.296;18.960;2023-04-06T05:55:06;46473.66;;;-144.43;66.95
37486;BME280;23341;50.296;18.960;2023-04-06T06:00:15;46519.59;;;-144.43;65.44
37486;BME280;23341;50.296;18.960;2023-04-06T06:05:29;46505.59;;;-144.43;64.04
37486;BME280;23341;50.296;18.960;2023-04-06T06:10:40;46529.56;;;-144.43;62.21
37486;BME280;23341;50.296;18.960;2023-04-06T06:15:48;46523.59;;;-144.43;60.21
37486;BME280;23341;50.296;18.960;2023-04-06T06:20:54;46559.53;;;-144.43;59.04
37486;BME280;23341;50.296;18.960;2023-04-06T06:26:00;46577.50;;;-144.43;57.95
37486;BME280;23341;50.296;18.960;2023-04-06T06:31:07;46575.50;;;-144.43;56.06
37486;BME280;23341;50.296;18.960;2023-04-06T06:36:11;46613.47;;;-144.43;53.91
37486;BME280;23341;50.296;18.960;2023-04-06T06:41:16;46579.50;;;-144.43;52.45
37486;BME280;23341;50.296;18.960;2023-04-06T06:46:22;46641.41;;;-144.43;51.55
37486;BME280;23341;50.296;18.960;2023-04-06T06:51:26;46705.34;;;-144.43;52.58
37486;BME280;23341;50.296;18.960;2023-04-06T06:56:31;46723.31;;;-144.43;52.86
37486;BME280;23341;50.296;18.960;2023-04-06T07:01:37;46785.22;;;-144.43;52.48
37486;BME280;23341;50.296;18.960;2023-04-06T07:06:42;46725.31;;;-144.43;51.25
37486;BME280;23341;50.296;18.960;2023-04-06T07:11:48;46755.25;;;-144.43;49.63
37486;BME280;23341;50.296;18.960;2023-04-06T07:16:54;46727.31;;;-144.43;47.52
37486;BME280;23341;50.296;18.960;2023-04-06T07:21:58;46719.31;;;-144.43;46.46
37486;BME280;23341;50.296;18.960;2023-04-06T07:27:03;46701.34;;;-144.43;44.69
37486;BME280;23341;50.296;18.960;2023-04-06T07:32:10;46641.41;;;-144.43;41.73
37486;BME280;23341;50.296;18.960;2023-04-06T07:37:14;46531.56;;;-144.43;37.18
37486;BME280;23341;50.296;18.960;2023-04-06T07:42:20;46575.50;;;-144.43;33.95
37486;BME280;23341;50.296;18.960;2023-04-06T07:47:26;46605.47;;;-144.43;32.06
37486;BME280;23341;50.296;18.960;2023-04-06T07:52:31;46751.28;;;-144.43;30.51
37486;BME280;23341;50.296;18.960;2023-04-06T07:57:37;46921.03;;;-144.43;32.26
37486;BME280;23341;50.296;18.960;2023-04-06T08:02:44;46953.00;;;-144.43;33.18
37486;BME280;23341;50.296;18.960;2023-04-06T08:07:48;47096.81;;;-144.43;39.29
37486;BME280;23341;50.296;18.960;2023-04-06T08:12:53;47138.78;;;-144.43;38.13
37486;BME280;23341;50.296;18.960;2023-04-06T08:17:59;47200.69;;;-144.43;44.24
37486;BME280;23341;50.296;18.960;2023-04-06T08:23:03;47196.69;;;-144.43;44.62
37486;BME280;23341;50.296;18.960;2023-04-06T08:28:09;47256.63;;;-144.43;46.23
37486;BME280;23341;50.296;18.960;2023-04-06T08:33:15;47260.63;;;-144.43;48.73
37486;BME280;23341;50.296;18.960;2023-04-06T08:38:19;47226.66;;;-144.43;48.33
37486;BME280;23341;50.296;18.960;2023-04-06T08:43:25;47200.69;;;-144.43;47.73
37486;BME280;23341;50.296;18.960;2023-04-06T08:48:33;47228.66;;;-144.43;46.99
37486;BME280;23341;50.296;18.960;2023-04-06T08:53:38;47204.69;;;-144.43;47.22
37486;BME280;23341;50.296;18.960;2023-04-06T08:58:43;47256.63;;;-144.43;48.02
37486;BME280;23341;50.296;18.960;2023-04-06T09:03:51;47254.63;;;-144.43;49.73
37486;BME280;23341;50.296;18.960;2023-04-06T09:08:58;47232.66;;;-144.43;50.17
37486;BME280;23341;50.296;18.960;2023-04-06T09:14:02;47220.66;;;-144.43;50.24
37486;BME280;23341;50.296;18.960;2023-04-06T09:19:09;47194.69;;;-144.43;50.13
37486;BME280;23341;50.296;18.960;2023-04-06T09:24:13;47160.75;;;-144.43;49.29
37486;BME280;23341;50.296;18.960;2023-04-06T09:29:24;47142.75;;;-144.43;48.43
37486;BME280;23341;50.296;18.960;2023-04-06T09:34:31;47132.78;;;-144.43;47.12
37486;BME280;23341;50.296;18.960;2023-04-06T09:39:35;47142.75;;;-144.43;44.30
37486;BME280;23341;50.296;18.960;2023-04-06T09:44:40;47152.75;;;-144.43;44.87
37486;BME280;23341;50.296;18.960;2023-04-06T09:49:47;47136.78;;;-144.43;45.28
37486;BME280;23341;50.296;18.960;2023-04-06T09:54:56;47170.72;;;-144.43;43.86
37486;BME280;23341;50.296;18.960;2023-04-06T10:00:04;47108.81;;;-144.43;44.10
37486;BME280;23341;50.296;18.960;2023-04-06T10:05:19;47094.81;;;-144.43;43.64
37486;BME280;23341;50.296;18.960;2023-04-06T10:10:25;47100.81;;;-144.43;42.61
37486;BME280;23341;50.296;18.960;2023-04-06T10:15:30;47146.75;;;-144.43;43.09
37486;BME280;23341;50.296;18.960;2023-04-06T10:20:41;47160.75;;;-144.43;43.84
37486;BME280;23341;50.296;18.960;2023-04-06T10:25:54;47092.81;;;-144.43;42.85
37486;BME280;23341;50.296;18.960;2023-04-06T10:30:59;47084.84;;;-144.43;43.28
37486;BME280;23341;50.296;18.960;2023-04-06T10:36:12;47132.78;;;-144.43;42.11
37486;BME280;23341;50.296;18.960;2023-04-06T10:41:17;47124.78;;;-144.43;43.00
37486;BME280;23341;50.296;18.960;2023-04-06T10:46:25;47152.75;;;-144.43;43.65
37486;BME280;23341;50.296;18.960;2023-04-06T10:51:31;47184.72;;;-144.43;43.27
37486;BME280;23341;50.296;18.960;2023-04-06T10:56:37;47220.66;;;-144.43;44.23
37486;BME280;23341;50.296;18.960;2023-04-06T11:01:44;47204.69;;;-144.43;46.63
37486;BME280;23341;50.296;18.960;2023-04-06T11:06:50;47228.66;;;-144.43;46.78
37486;BME280;23341;50.296;18.960;2023-04-06T11:11:55;47248.63;;;-144.43;45.63
37486;BME280;23341;50.296;18.960;2023-04-06T11:17:00;47194.69;;;-144.43;46.27
37486;BME280;23341;50.296;18.960;2023-04-06T11:22:08;47180.72;;;-144.43;45.23
37486;BME280;23341;50.296;18.960;2023-04-06T11:27:12;47174.72;;;-144.43;45.00
37486;BME280;23341;50.296;18.960;2023-04-06T11:32:22;47190.72;;;-144.43;42.79
37486;BME280;23341;50.296;18.960;2023-04-06T11:37:28;47182.72;;;-144.43;44.10
37486;BME280;23341;50.296;18.960;2023-04-06T11:42:34;47146.75;;;-144.43;45.14
37486;BME280;23341;50.296;18.960;2023-04-06T11:47:39;47144.75;;;-144.43;43.67
37486;BME280;23341;50.296;18.960;2023-04-06T11:52:58;47152.75;;;-144.43;42.79
37486;BME280;23341;50.296;18.960;2023-04-06T11:58:02;47178.72;;;-144.43;43.09
37486;BME280;23341;50.296;18.960;2023-04-06T12:03:07;47204.69;;;-144.43;44.07
37486;BME280;23341;50.296;18.960;2023-04-06T12:08:13;47194.69;;;-144.43;44.50
37486;BME280;23341;50.296;18.960;2023-04-06T12:13:17;47220.66;;;-144.43;44.83
37486;BME280;23341;50.296;18.960;2023-04-06T12:18:22;47216.69;;;-144.43;46.47
37486;BME280;23341;50.296;18.960;2023-04-06T12:23:28;47208.69;;;-144.43;47.16
37486;BME280;23341;50.296;18.960;2023-04-06T12:28:32;47222.66;;;-144.43;46.39
37486;BME280;23341;50.296;18.960;2023-04-06T12:33:37;47190.72;;;-144.43;46.19
37486;BME280;23341;50.296;18.960;2023-04-06T12:38:42;47222.66;;;-144.43;47.35
37486;BME280;23341;50.296;18.960;2023-04-06T12:43:48;47224.66;;;-144.43;47.25
37486;BME280;23341;50.296;18.960;2023-04-06T12:48:53;47236.66;;;-144.43;49.03
37486;BME280;23341;50.296;18.960;2023-04-06T12:54:00;47200.69;;;-144.43;51.12
37486;BME280;23341;50.296;18.960;2023-04-06T12:59:04;47210.69;;;-144.43;51.49
37486;BME280;23341;50.296;18.960;2023-04-06T13:04:09;47210.69;;;-144.43;52.90
37486;BME280;23341;50.296;18.960;2023-04-06T13:09:15;47176.72;;;-144.43;54.59
37486;BME280;23341;50.296;18.960;2023-04-06T13:14:19;47160.75;;;-144.43;58.12
37486;BME280;23341;50.296;18.960;2023-04-06T13:19:24;47128.78;;;-144.43;60.70
37486;BME280;23341;50.296;18.960;2023-04-06T13:24:30;47114.81;;;-144.43;65.13
37486;BME280;23341;50.296;18.960;2023-04-06T13:29:35;47030.91;;;-144.43;70.20
37486;BME280;23341;50.296;18.960;2023-04-06T13:34:40;46968.97;;;-144.43;72.73
37486;BME280;23341;50.296;18.960;2023-04-06T13:39:49;46919.06;;;-144.43;73.34
37486;BME280;23341;50.296;18.960;2023-04-06T13:44:53;46851.13;;;-144.43;77.17
37486;BME280;23341;50.296;18.960;2023-04-06T13:49:57;46805.19;;;-144.43;78.35
37486;BME280;23341;50.296;18.960;2023-04-06T13:55:04;46669.38;;;-144.43;81.73
37486;BME280;23341;50.296;18.960;2023-04-06T14:00:13;46527.59;;;-144.43;82.94
37486;BME280;23341;50.296;18.960;2023-04-06T14:05:18;46517.59;;;-144.43;82.12
37486;BME280;23341;50.296;18.960;2023-04-06T14:10:23;46423.72;;;-144.43;82.82
37486;BME280;23341;50.296;18.960;2023-04-06T14:15:31;46405.75;;;-144.43;82.68
37486;BME280;23341;50.296;18.960;2023-04-06T14:20:36;46393.78;;;-144.43;81.30
37486;BME280;23341;50.296;18.960;2023-04-06T14:25:42;46445.69;;;-144.43;80.20
37486;BME280;23341;50.296;18.960;2023-04-06T14:30:46;46417.72;;;-144.43;78.51
37486;BME280;23341;50.296;18.960;2023-04-06T14:35:50;46453.69;;;-144.43;76.56
37486;BME280;23341;50.296;18.960;2023-04-06T14:40:56;46443.69;;;-144.43;75.94
37486;BME280;23341;50.296;18.960;2023-04-06T14:46:00;46493.63;;;-144.43;74.31
37486;BME280;23341;50.296;18.960;2023-04-06T14:51:05;46495.63;;;-144.43;77.11
37486;BME280;23341;50.296;18.960;2023-04-06T14:56:13;46453.69;;;-144.43;78.82
37486;BME280;23341;50.296;18.960;2023-04-06T15:01:33;46409.75;;;-144.43;79.88
37486;BME280;23341;50.296;18.960;2023-04-06T15:06:38;46435.72;;;-144.43;80.32
37486;BME280;23341;50.296;18.960;2023-04-06T15:11:44;46421.72;;;-144.43;80.98
37486;BME280;23341;50.296;18.960;2023-04-06T15:16:48;46369.81;;;-144.43;82.07
37486;BME280;23341;50.296;18.960;2023-04-06T15:21:53;46389.78;;;-144.43;80.93
37486;BME280;23341;50.296;18.960;2023-04-06T15:26:58;46369.81;;;-144.43;80.88
37486;BME280;23341;50.296;18.960;2023-04-06T15:32:03;46393.78;;;-144.43;80.70
37486;BME280;23341;50.296;18.960;2023-04-06T15:37:07;46433.72;;;-144.43;78.27
37486;BME280;23341;50.296;18.960;2023-04-06T15:42:13;46405.75;;;-144.43;77.46
37486;BME280;23341;50.296;18.960;2023-04-06T15:47:17;46445.69;;;-144.43;76.17
37486;BME280;23341;50.296;18.960;2023-04-06T15:52:22;46447.69;;;-144.43;76.78
37486;BME280;23341;50.296;18.960;2023-04-06T15:57:27;46469.66;;;-144.43;76.55
37486;BME280;23341;50.296;18.960;2023-04-06T16:02:32;46427.72;;;-144.43;77.49
37486;BME280;23341;50.296;18.960;2023-04-06T16:07:41;46421.72;;;-144.43;78.82
37486;BME280;23341;50.296;18.960;2023-04-06T16:12:47;46393.78;;;-144.43;79.25
37486;BME280;23341;50.296;18.960;2023-04-06T16:17:52;46361.81;;;-144.43;81.19
37486;BME280;23341;50.296;18.960;2023-04-06T16:22:56;46242.00;;;-144.43;85.33
37486;BME280;23341;50.296;18.960;2023-04-06T16:28:02;45938.44;;;-144.43;90.35
37486;BME280;23341;50.296;18.960;2023-04-06T16:33:06;45668.88;;;-144.43;93.40
37486;BME280;23341;50.296;18.960;2023-04-06T16:38:10;45379.34;;;-144.43;97.07
37486;BME280;23341;50.296;18.960;2023-04-06T16:43:16;45217.63;;;-144.43;97.80
37486;BME280;23341;50.296;18.960;2023-04-06T16:48:20;45043.94;;;-144.43;100.00
37486;BME280;23341;50.296;18.960;2023-04-06T16:53:26;44886.22;;;-144.43;100.00
37486;BME280;23341;50.296;18.960;2023-04-06T16:58:32;44798.38;;;-144.43;100.00
37486;BME280;23341;50.296;18.960;2023-04-06T17:03:36;44616.72;;;-144.43;100.00
37486;BME280;23341;50.296;18.960;2023-04-06T17:08:41;44459.03;;;-144.43;100.00
37486;BME280;23341;50.296;18.960;2023-04-06T17:13:48;44341.25;;;-144.43;100.00
37486;BME280;23341;50.296;18.960;2023-04-06T17:18:53;44199.53;;;-144.43;100.00
37486;BME280;23341;50.296;18.960;2023-04-06T17:23:57;44129.66;;;-144.43;100.00
37486;BME280;23341;50.296;18.960;2023-04-06T17:29:03;43948.03;;;-144.43;100.00
37486;BME280;23341;50.296;18.960;2023-04-06T17:34:07;43520.94;;;-144.43;100.00
37486;BME280;23341;50.296;18.960;2023-04-06T17:39:13;43229.59;;;-144.43;100.00
37486;BME280;23341;50.296;18.960;2023-04-06T17:44:18;43091.91;;;-144.43;100.00
37486;BME280;23341;50.296;18.960;2023-04-06T17:49:23;42960.19;;;-144.43;100.00
37486;BME280;23341;50.296;18.960;2023-04-06T17:54:27;42840.47;;;-144.43;100.00
37486;BME280;23341;50.296;18.960;2023-04-06T17:59:33;42708.78;;;-144.43;100.00
37486;BME280;23341;50.296;18.960;2023-04-06T18:04:38;42660.91;;;-144.43;100.00
37486;BME280;23341;50.296;18.960;2023-04-06T18:09:46;42493.31;;;-144.43;100.00
37486;BME280;23341;50.296;18.960;2023-04-06T18:14:51;42343.66;;;-144.43;100.00
37486;BME280;23341;50.296;18.960;2023-04-06T18:19:56;42239.94;;;-144.43;100.00
37486;BME280;23341;50.296;18.960;2023-04-06T18:25:00;42102.28;;;-144.43;100.00
37486;BME280;23341;50.296;18.960;2023-04-06T18:30:07;41962.63;;;-144.43;100.00
37486;BME280;23341;50.296;18.960;2023-04-06T18:35:12;41938.69;;;-144.43;100.00
37486;BME280;23341;50.296;18.960;2023-04-06T18:40:33;41834.94;;;-144.43;100.00
37486;BME280;23341;50.296;18.960;2023-04-06T18:45:42;41777.09;;;-144.43;100.00
37486;BME280;23341;50.296;18.960;2023-04-06T18:50:53;41735.22;;;-144.43;100.00
37486;BME280;23341;50.296;18.960;2023-04-06T18:55:59;41643.47;;;-144.43;100.00
37486;BME280;23341;50.296;18.960;2023-04-06T19:01:07;41723.25;;;-144.43;100.00
37486;BME280;23341;50.296;18.960;2023-04-06T19:06:11;41689.34;;;-144.43;100.00
37486;BME280;23341;50.296;18.960;2023-04-06T19:11:16;41655.44;;;-144.43;100.00
37486;BME280;23341;50.296;18.960;2023-04-06T19:16:23;41603.56;;;-144.43;100.00
37486;BME280;23341;50.296;18.960;2023-04-06T19:21:28;41436.00;;;-144.43;100.00
37486;BME280;23341;50.296;18.960;2023-04-06T19:26:32;41376.16;;;-144.43;100.00
37486;BME280;23341;50.296;18.960;2023-04-06T19:31:38;41302.38;;;-144.43;100.00
37486;BME280;23341;50.296;18.960;2023-04-06T19:36:43;41218.59;;;-144.43;100.00
37486;BME280;23341;50.296;18.960;2023-04-06T19:41:47;41110.91;;;-144.43;100.00
37486;BME280;23341;50.296;18.960;2023-04-06T19:46:53;40959.31;;;-144.43;100.00
37486;BME280;23341;50.296;18.960;2023-04-06T19:51:58;40901.50;;;-144.43;100.00
37486;BME280;23341;50.296;18.960;2023-04-06T19:57:02;40857.63;;;-144.43;100.00
37486;BME280;23341;50.296;18.960;2023-04-06T20:02:08;40873.56;;;-144.43;100.00
37486;BME280;23341;50.296;18.960;2023-04-06T20:07:13;40895.50;;;-144.43;100.00
37486;BME280;23341;50.296;18.960;2023-04-06T20:12:18;40835.69;;;-144.43;100.00
37486;BME280;23341;50.296;18.960;2023-04-06T20:17:24;40865.59;;;-144.43;100.00
37486;BME280;23341;50.296;18.960;2023-04-06T20:22:28;40893.50;;;-144.43;100.00
37486;BME280;23341;50.296;18.960;2023-04-06T20:27:32;40865.59;;;-144.43;100.00
37486;BME280;23341;50.296;18.960;2023-04-06T20:32:38;40871.56;;;-144.43;100.00
37486;BME280;23341;50.296;18.960;2023-04-06T20:37:43;40951.34;;;-144.43;100.00
37486;BME280;23341;50.296;18.960;2023-04-06T20:42:47;41037.09;;;-144.43;100.00
37486;BME280;23341;50.296;18.960;2023-04-06T20:47:53;41084.97;;;-144.43;100.00
37486;BME280;23341;50.296;18.960;2023-04-06T20:52:58;41009.19;;;-144.43;100.00
37486;BME280;23341;50.296;18.960;2023-04-06T20:58:02;40953.34;;;-144.43;100.00
37486;BME280;23341;50.296;18.960;2023-04-06T21:03:07;40909.47;;;-144.43;100.00
37486;BME280;23341;50.296;18.960;2023-04-06T21:08:12;40881.53;;;-144.43;100.00
37486;BME280;23341;50.296;18.960;2023-04-06T21:13:16;40881.53;;;-144.43;100.00
37486;BME280;23341;50.296;18.960;2023-04-06T21:18:22;40815.72;;;-144.43;100.00
37486;BME280;23341;50.296;18.960;2023-04-06T21:23:27;40773.84;;;-144.43;100.00
37486;BME280;23341;50.296;18.960;2023-04-06T21:28:32;40837.66;;;-144.43;100.00
37486;BME280;23341;50.296;18.960;2023-04-06T21:33:37;40805.75;;;-144.43;100.00
37486;BME280;23341;50.296;18.960;2023-04-06T21:38:42;40737.94;;;-144.43;100.00
37486;BME280;23341;50.296;18.960;2023-04-06T21:43:46;40686.09;;;-144.43;100.00
37486;BME280;23341;50.296;18.960;2023-04-06T21:54:07;40749.91;;;-144.43;100.00
37486;BME280;23341;50.296;18.960;2023-04-06T21:59:11;40737.94;;;-144.43;100.00
37486;BME280;23341;50.296;18.960;2023-04-06T22:04:17;40737.94;;;-144.43;100.00
37486;BME280;23341;50.296;18.960;2023-04-06T22:09:24;40684.09;;;-144.43;100.00
37486;BME280;23341;50.296;18.960;2023-04-06T22:14:29;40757.91;;;-144.43;100.00
37486;BME280;23341;50.296;18.960;2023-04-06T22:19:33;40781.81;;;-144.43;100.00
37486;BME280;23341;50.296;18.960;2023-04-06T22:24:39;40729.97;;;-144.43;100.00
37486;BME280;23341;50.296;18.960;2023-04-06T22:29:44;40702.06;;;-144.43;100.00
37486;BME280;23341;50.296;18.960;2023-04-06T22:34:48;40706.03;;;-144.43;100.00
37486;BME280;23341;50.296;18.960;2023-04-06T22:39:53;40712.03;;;-144.43;100.00
37486;BME280;23341;50.296;18.960;2023-04-06T22:44:57;40727.97;;;-144.43;100.00
37486;BME280;23341;50.296;18.960;2023-04-06T22:50:02;40757.91;;;-144.43;100.00
37486;BME280;23341;50.296;18.960;2023-04-06T22:55:08;40678.13;;;-144.43;100.00
37486;BME280;23341;50.296;18.960;2023-04-06T23:00:13;40676.13;;;-144.43;100.00
37486;BME280;23341;50.296;18.960;2023-04-06T23:05:18;40658.19;;;-144.43;100.00
37486;BME280;23341;50.296;18.960;2023-04-06T23:10:27;40704.06;;;-144.43;100.00
37486;BME280;23341;50.296;18.960;2023-04-06T23:15:31;40668.16;;;-144.43;100.00
37486;BME280;23341;50.296;18.960;2023-04-06T23:20:35;40586.38;;;-144.43;100.00
37486;BME280;23341;50.296;18.960;2023-04-06T23:25:41;40668.16;;;-144.43;100.00
37486;BME280;23341;50.296;18.960;2023-04-06T23:30:46;40682.13;;;-144.43;100.00
37486;BME280;23341;50.296;18.960;2023-04-06T23:35:50;40670.16;;;-144.43;100.00
37486;BME280;23341;50.296;18.960;2023-04-06T23:40:56;40684.09;;;-144.43;100.00
37486;BME280;23341;50.296;18.960;2023-04-06T23:46:01;40670.16;;;-144.43;100.00
37486;BME280;23341;50.296;18.960;2023-04-06T23:51:05;40720.00;;;-144.43;100.00
37486;BME280;23341;50.296;18.960;2023-04-06T23:56:11;40680.13;;;-144.43;100.00
